createdAt,value
2023-02-05T00:01:57.781Z,19.52
2023-02-05T00:04:31.768Z,17.65
2023-02-05T00:07:07.797Z,16.55
2023-02-05T00:09:43.090Z,15.20
2023-02-05T00:12:09.955Z,14.60
2023-02-05T00:14:43.731Z,15.07
2023-02-05T00:17:11.496Z,14.32
2023-02-05T00:19:44.788Z,15.07
2023-02-05T00:22:17.371Z,13.82
2023-02-05T00:27:23.210Z,12.85
2023-02-05T00:29:56.793Z,12.32
2023-02-05T00:32:23.764Z,14.02
2023-02-05T00:34:50.610Z,14.73
2023-02-05T00:37:33.815Z,13.57
2023-02-05T00:40:00.881Z,13.68
2023-02-05T00:42:34.869Z,12.73
2023-02-05T00:45:07.812Z,15.55
2023-02-05T00:47:39.755Z,15.27
2023-02-05T00:50:12.822Z,14.68
2023-02-05T00:52:44.703Z,17.50
2023-02-05T00:55:17.913Z,15.65
2023-02-05T00:57:44.684Z,16.05
2023-02-05T01:00:26.080Z,16.90
2023-02-05T01:02:55.858Z,19.35
2023-02-05T01:05:28.894Z,17.50
2023-02-05T01:08:08.875Z,16.65
2023-02-05T01:10:37.195Z,15.48
2023-02-05T01:13:07.803Z,15.25
2023-02-05T01:15:40.913Z,14.75
2023-02-05T01:18:08.291Z,14.18
2023-02-05T01:20:45.822Z,14.65
2023-02-05T01:23:12.683Z,17.02
2023-02-05T01:25:45.864Z,17.90
2023-02-05T01:28:12.926Z,16.33
2023-02-05T01:30:45.982Z,18.17
2023-02-05T01:33:20.906Z,16.02
2023-02-05T01:35:47.682Z,18.75
2023-02-05T01:38:21.895Z,16.60
2023-02-05T01:40:54.883Z,19.50
2023-02-05T01:43:27.914Z,16.52
2023-02-05T01:46:05.478Z,15.48
2023-02-05T01:48:50.978Z,18.65
2023-02-05T01:51:18.104Z,16.88
2023-02-05T01:53:54.945Z,16.60
2023-02-05T01:56:56.716Z,15.65
2023-02-05T01:59:35.894Z,17.60
2023-02-05T02:02:07.628Z,16.20
2023-02-05T02:04:45.997Z,17.23
2023-02-05T02:07:16.165Z,17.58
2023-02-05T02:09:52.019Z,18.05
2023-02-05T02:12:23.439Z,16.77
2023-02-05T02:15:00.987Z,16.17
2023-02-05T02:17:35.041Z,16.80
2023-02-05T02:20:05.365Z,15.70
2023-02-05T02:23:02.957Z,14.40
2023-02-05T02:25:48.813Z,12.52
2023-02-05T02:29:06.012Z,12.90
2023-02-05T02:31:41.093Z,13.10
2023-02-05T02:34:45.006Z,12.80
2023-02-05T02:37:37.046Z,10.98
2023-02-05T02:40:25.592Z,11.90
2023-02-05T02:43:08.031Z,9.98
2023-02-05T02:45:40.353Z,10.18
2023-02-05T02:50:44.241Z,8.98
2023-02-05T02:53:44.071Z,8.15
2023-02-05T02:56:20.006Z,7.35
2023-02-05T02:59:01.091Z,6.25
2023-02-05T03:01:32.716Z,7.38
2023-02-05T03:04:11.034Z,6.90
2023-02-05T03:06:43.970Z,6.68
2023-02-05T03:09:29.097Z,7.22
2023-02-05T03:11:55.964Z,5.95
2023-02-05T03:14:22.769Z,6.30
2023-02-05T03:16:56.040Z,6.25
2023-02-05T03:19:29.079Z,5.10
2023-02-05T03:22:09.026Z,5.68
2023-02-05T03:24:43.068Z,5.45
2023-02-05T03:27:10.167Z,5.35
2023-02-05T03:29:51.089Z,4.93
2023-02-05T03:32:37.158Z,5.63
2023-02-05T03:35:27.262Z,5.57
2023-02-05T03:38:39.122Z,5.60
2023-02-05T03:41:14.728Z,5.28
2023-02-05T03:43:56.116Z,4.78
2023-02-05T03:46:33.049Z,4.75
2023-02-05T03:49:06.187Z,4.38
2023-02-05T03:51:49.471Z,5.97
2023-02-05T03:54:45.117Z,4.70
2023-02-05T03:57:22.667Z,4.82
2023-02-05T04:00:00.119Z,4.15
2023-02-05T04:02:34.151Z,4.65
2023-02-05T04:05:01.013Z,4.43
2023-02-05T04:07:39.129Z,4.63
2023-02-05T04:10:06.326Z,4.18
2023-02-05T04:12:33.231Z,4.72
2023-02-05T04:15:06.259Z,4.85
2023-02-05T04:17:33.027Z,5.38
2023-02-05T04:20:06.125Z,5.45
2023-02-05T04:22:33.237Z,5.38
2023-02-05T04:25:06.165Z,6.03
2023-02-05T04:27:33.791Z,5.28
2023-02-05T04:30:07.367Z,5.88
2023-02-05T04:32:34.259Z,5.43
2023-02-05T04:35:01.165Z,6.40
2023-02-05T04:37:38.153Z,5.95
2023-02-05T04:40:05.768Z,6.57
2023-02-05T04:42:39.165Z,6.65
2023-02-05T04:45:06.470Z,6.28
2023-02-05T04:47:46.247Z,6.30
2023-02-05T04:50:13.052Z,7.00
2023-02-05T04:52:46.196Z,6.75
2023-02-05T04:55:12.914Z,5.57
2023-02-05T04:57:46.206Z,5.60
2023-02-05T05:00:13.946Z,4.60
2023-02-05T05:02:48.303Z,3.78
2023-02-05T05:05:15.230Z,3.92
2023-02-05T05:07:48.213Z,4.00
2023-02-05T05:10:15.869Z,3.28
2023-02-05T05:12:49.282Z,2.50
2023-02-05T05:15:16.161Z,2.90
2023-02-05T05:17:52.250Z,2.25
2023-02-05T05:20:19.125Z,2.80
2023-02-05T05:23:00.229Z,2.67
2023-02-05T05:25:26.992Z,2.10
2023-02-05T05:28:07.294Z,2.20
2023-02-05T05:30:34.162Z,1.73
2023-02-05T05:33:07.296Z,1.60
2023-02-05T05:35:34.804Z,1.42
2023-02-05T05:38:10.281Z,1.63
2023-02-05T05:40:55.506Z,2.03
2023-02-05T05:43:47.444Z,1.92
2023-02-05T05:46:16.715Z,2.22
2023-02-05T05:48:50.290Z,1.60
2023-02-05T05:51:24.306Z,1.52
2023-02-05T05:53:58.290Z,1.80
2023-02-05T05:56:25.126Z,2.10
2023-02-05T05:59:05.309Z,1.45
2023-02-05T06:01:32.046Z,1.92
2023-02-05T06:04:05.547Z,1.23
2023-02-05T06:06:32.470Z,1.80
2023-02-05T06:09:05.312Z,1.75
2023-02-05T06:11:32.196Z,1.48
2023-02-05T06:13:59.091Z,1.67
2023-02-05T06:16:39.315Z,1.63
2023-02-05T06:19:12.383Z,1.50
2023-02-05T06:21:45.366Z,1.17
2023-02-05T06:24:18.339Z,1.98
2023-02-05T06:26:45.240Z,1.70
2023-02-05T06:29:18.355Z,1.58
2023-02-05T06:31:52.498Z,2.05
2023-02-05T06:34:26.376Z,1.90
2023-02-05T06:36:53.243Z,1.88
2023-02-05T06:39:26.359Z,1.23
2023-02-05T06:41:53.292Z,1.40
2023-02-05T06:44:26.349Z,1.88
2023-02-05T06:46:53.110Z,2.28
2023-02-05T06:49:26.357Z,1.55
2023-02-05T06:51:53.433Z,1.55
2023-02-05T06:54:27.444Z,2.22
2023-02-05T06:57:08.695Z,1.70
2023-02-05T06:59:42.475Z,1.85
2023-02-05T07:02:13.428Z,1.83
2023-02-05T07:04:46.429Z,2.75
2023-02-05T07:07:20.470Z,1.80
2023-02-05T07:09:51.459Z,2.20
2023-02-05T07:12:33.439Z,2.88
2023-02-05T07:15:00.263Z,1.98
2023-02-05T07:17:33.411Z,2.53
2023-02-05T07:20:00.223Z,2.67
2023-02-05T07:22:33.512Z,2.13
2023-02-05T07:25:03.216Z,1.75
2023-02-05T07:27:31.269Z,2.30
2023-02-05T07:30:04.548Z,3.13
2023-02-05T07:32:31.457Z,1.95
2023-02-05T07:35:04.490Z,2.20
2023-02-05T07:37:31.457Z,2.67
2023-02-05T07:40:04.493Z,2.30
2023-02-05T07:42:31.718Z,2.45
2023-02-05T07:44:58.637Z,2.40
2023-02-05T07:47:32.483Z,2.45
2023-02-05T07:49:59.300Z,2.03
2023-02-05T07:52:26.428Z,2.45
2023-02-05T07:54:59.513Z,2.60
2023-02-05T07:57:38.466Z,2.05
2023-02-05T08:00:12.472Z,2.47
2023-02-05T08:02:46.479Z,2.30
2023-02-05T08:05:13.223Z,2.67
2023-02-05T08:07:46.538Z,2.78
2023-02-05T08:10:14.669Z,3.22
2023-02-05T08:12:41.469Z,2.72
2023-02-05T08:15:15.524Z,3.30
2023-02-05T08:17:42.275Z,2.88
2023-02-05T08:20:16.526Z,2.95
2023-02-05T08:22:43.508Z,3.83
2023-02-05T08:25:19.542Z,3.22
2023-02-05T08:27:46.634Z,3.05
2023-02-05T08:30:23.656Z,4.00
2023-02-05T08:32:50.834Z,3.58
2023-02-05T08:35:24.556Z,3.83
2023-02-05T08:37:51.287Z,4.70
2023-02-05T08:40:24.525Z,4.03
2023-02-05T08:43:00.376Z,4.65
2023-02-05T08:45:34.824Z,4.18
2023-02-05T08:48:08.846Z,4.25
2023-02-05T08:50:35.586Z,4.45
2023-02-05T08:53:08.642Z,3.95
2023-02-05T08:55:35.663Z,4.38
2023-02-05T08:58:02.668Z,4.13
2023-02-05T09:00:35.581Z,3.72
2023-02-05T09:03:06.669Z,4.30
2023-02-05T09:05:39.571Z,5.10
2023-02-05T09:08:12.651Z,4.43
2023-02-05T09:10:39.451Z,4.43
2023-02-05T09:13:06.492Z,4.22
2023-02-05T09:15:39.596Z,5.00
2023-02-05T09:18:14.577Z,4.55
2023-02-05T09:20:43.458Z,5.10
2023-02-05T09:23:18.621Z,4.20
2023-02-05T09:25:45.958Z,4.70
2023-02-05T09:28:22.625Z,4.40
2023-02-05T09:30:49.478Z,4.95
2023-02-05T09:33:22.617Z,5.05
2023-02-05T09:35:49.463Z,4.97
2023-02-05T09:38:28.629Z,4.18
2023-02-05T09:41:13.980Z,4.55
2023-02-05T09:44:16.679Z,5.25
2023-02-05T09:47:05.818Z,4.07
2023-02-05T09:49:48.658Z,5.55
2023-02-05T09:52:20.685Z,4.95
2023-02-05T09:55:07.731Z,4.90
2023-02-05T09:57:41.072Z,4.80
2023-02-05T10:00:38.671Z,4.60
2023-02-05T10:03:27.021Z,4.22
2023-02-05T10:06:18.710Z,4.65
2023-02-05T10:09:06.880Z,3.83
2023-02-05T10:11:54.725Z,5.38
2023-02-05T10:14:37.107Z,5.07
2023-02-05T10:20:06.501Z,4.47
2023-02-05T10:22:55.168Z,4.55
2023-02-05T10:25:56.775Z,4.60
2023-02-05T10:29:01.473Z,4.33
2023-02-05T10:31:48.784Z,4.75
2023-02-05T10:34:33.574Z,4.90
2023-02-05T10:37:08.804Z,4.65
2023-02-05T10:39:35.659Z,4.47
2023-02-05T10:42:30.735Z,4.57
2023-02-05T10:48:17.219Z,5.53
2023-02-05T10:51:22.749Z,4.30
2023-02-05T10:53:49.511Z,4.00
2023-02-05T10:56:25.770Z,4.25
2023-02-05T10:58:58.925Z,4.32
2023-02-05T11:01:39.793Z,4.22
2023-02-05T11:04:17.109Z,4.72
2023-02-05T11:07:07.831Z,4.95
2023-02-05T11:09:41.372Z,4.45
2023-02-05T11:12:29.809Z,4.63
2023-02-05T11:15:02.027Z,4.15
2023-02-05T11:17:44.823Z,4.97
2023-02-05T11:20:17.214Z,4.35
2023-02-05T11:22:52.825Z,5.68
2023-02-05T11:25:27.231Z,4.38
2023-02-05T11:28:03.142Z,4.20
2023-02-05T11:30:51.552Z,3.70
2023-02-05T11:33:26.108Z,4.65
2023-02-05T11:36:14.869Z,4.93
2023-02-05T11:38:56.855Z,5.30
2023-02-05T11:41:54.881Z,3.95
2023-02-05T11:44:32.872Z,3.90
2023-02-05T11:47:08.835Z,4.10
2023-02-05T11:49:47.854Z,3.50
2023-02-05T11:52:23.102Z,5.38
2023-02-05T11:54:56.894Z,4.40
2023-02-05T11:57:45.848Z,4.50
2023-02-05T12:00:19.959Z,4.38
2023-02-05T12:03:01.916Z,3.00
2023-02-05T12:05:37.331Z,4.38
2023-02-05T12:08:32.852Z,4.75
2023-02-05T12:11:04.555Z,3.90
2023-02-05T12:13:51.877Z,3.60
2023-02-05T12:16:41.659Z,4.63
2023-02-05T12:19:42.988Z,4.57
2023-02-05T12:22:27.995Z,3.60
2023-02-05T12:25:00.892Z,3.92
2023-02-05T12:27:42.907Z,4.38
2023-02-05T12:30:31.905Z,4.32
2023-02-05T12:33:17.569Z,4.03
2023-02-05T12:36:11.980Z,3.45
2023-02-05T12:39:24.761Z,4.00
2023-02-05T12:42:11.748Z,3.38
2023-02-05T12:45:09.942Z,3.97
2023-02-05T12:48:07.428Z,4.07
2023-02-05T12:51:09.031Z,3.88
2023-02-05T12:53:42.256Z,3.85
2023-02-05T12:56:47.974Z,3.63
2023-02-05T12:59:34.994Z,4.75
2023-02-05T13:02:11.202Z,3.92
2023-02-05T13:05:03.985Z,3.90
2023-02-05T13:10:15.941Z,3.75
2023-02-05T13:12:54.990Z,4.53
2023-02-05T13:15:34.381Z,4.05
2023-02-05T13:18:23.993Z,4.15
2023-02-05T13:21:30.001Z,3.90
2023-02-05T13:24:40.051Z,4.63
2023-02-05T13:27:52.084Z,3.30
2023-02-05T13:30:28.384Z,4.47
2023-02-05T13:33:08.017Z,3.95
2023-02-05T13:35:49.375Z,4.65
2023-02-05T13:38:41.076Z,4.05
2023-02-05T13:41:19.791Z,4.30
2023-02-05T13:44:11.995Z,4.40
2023-02-05T13:47:12.031Z,4.32
2023-02-05T13:50:04.697Z,4.20
2023-02-05T13:53:00.060Z,4.40
2023-02-05T13:55:43.859Z,4.57
2023-02-05T13:58:27.074Z,4.85
2023-02-05T14:01:01.340Z,4.50
2023-02-05T14:03:42.158Z,4.93
2023-02-05T14:06:27.151Z,5.53
2023-02-05T14:09:30.241Z,5.35
2023-02-05T14:12:10.194Z,4.47
2023-02-05T14:14:45.046Z,4.35
2023-02-05T14:17:33.088Z,4.80
2023-02-05T14:20:13.100Z,4.97
2023-02-05T14:22:44.795Z,5.40
2023-02-05T14:25:44.100Z,5.40
2023-02-05T14:28:16.629Z,4.20
2023-02-05T14:31:04.243Z,5.60
2023-02-05T14:33:44.086Z,5.40
2023-02-05T14:36:31.085Z,5.30
2023-02-05T14:39:21.750Z,5.07
2023-02-05T14:41:59.160Z,4.88
2023-02-05T14:44:31.849Z,5.43
2023-02-05T14:47:21.125Z,5.60
2023-02-05T14:49:56.110Z,5.00
2023-02-05T14:52:37.094Z,4.75
2023-02-05T14:55:27.378Z,5.05
2023-02-05T14:58:06.105Z,5.32
2023-02-05T15:00:43.202Z,5.10
2023-02-05T15:03:12.753Z,6.03
2023-02-05T15:05:52.170Z,5.65
2023-02-05T15:08:42.097Z,5.93
2023-02-05T15:11:37.210Z,5.60
2023-02-05T15:14:19.921Z,4.00
2023-02-05T15:17:12.140Z,5.65
2023-02-05T15:19:59.267Z,5.93
2023-02-05T15:22:33.693Z,5.18
2023-02-05T15:25:11.204Z,6.15
2023-02-05T15:27:43.731Z,6.15
2023-02-05T15:30:26.295Z,6.18
2023-02-05T15:35:34.536Z,5.55
2023-02-05T15:38:48.166Z,6.50
2023-02-05T15:41:29.235Z,9.20
2023-02-05T15:44:05.155Z,6.88
2023-02-05T15:46:40.538Z,8.40
2023-02-05T15:49:08.753Z,6.25
2023-02-05T15:51:44.239Z,6.32
2023-02-05T15:54:19.015Z,6.05
2023-02-05T15:56:59.259Z,6.53
2023-02-05T15:59:29.530Z,6.40
2023-02-05T16:02:22.284Z,5.35
2023-02-05T16:05:08.268Z,5.20
2023-02-05T16:07:44.461Z,4.90
2023-02-05T16:10:24.244Z,6.72
2023-02-05T16:13:02.184Z,6.90
2023-02-05T16:15:58.394Z,8.23
2023-02-05T16:18:34.269Z,6.13
2023-02-05T16:21:11.263Z,6.55
2023-02-05T16:23:47.366Z,6.28
2023-02-05T16:26:25.289Z,8.35
2023-02-05T16:29:24.464Z,6.13
2023-02-05T16:32:31.320Z,6.20
2023-02-05T16:35:00.185Z,6.40
2023-02-05T16:37:37.351Z,6.25
2023-02-05T16:40:13.300Z,6.00
2023-02-05T16:42:49.305Z,5.22
2023-02-05T16:45:25.328Z,5.93
2023-02-05T16:48:32.365Z,6.18
2023-02-05T16:51:01.243Z,6.40
2023-02-05T16:53:37.431Z,6.45
2023-02-05T16:56:17.943Z,5.78
2023-02-05T16:58:57.329Z,5.13
2023-02-05T17:01:37.436Z,6.18
2023-02-05T17:04:21.370Z,5.60
2023-02-05T17:06:54.366Z,5.53
2023-02-05T17:09:43.382Z,5.45
2023-02-05T17:12:22.514Z,5.15
2023-02-05T17:15:00.424Z,5.10
2023-02-05T17:17:29.120Z,5.70
2023-02-05T17:20:12.474Z,5.55
2023-02-05T17:22:39.286Z,4.85
2023-02-05T17:25:13.407Z,6.30
2023-02-05T17:27:40.251Z,5.70
2023-02-05T17:30:21.489Z,6.53
2023-02-05T17:32:50.673Z,7.22
2023-02-05T17:35:19.032Z,6.50
2023-02-05T17:37:52.424Z,6.28
2023-02-05T17:40:20.844Z,7.40
2023-02-05T17:42:49.072Z,5.97
2023-02-05T17:45:22.583Z,6.05
2023-02-05T17:47:56.388Z,6.55
2023-02-05T17:50:23.676Z,6.40
2023-02-05T17:52:58.452Z,5.38
2023-02-05T17:55:25.316Z,5.28
2023-02-05T17:57:58.506Z,5.75
2023-02-05T18:00:28.252Z,4.45
2023-02-05T18:02:55.372Z,4.65
2023-02-05T18:05:29.752Z,5.93
2023-02-05T18:07:58.397Z,7.65
2023-02-05T18:10:28.419Z,5.30
2023-02-05T18:13:02.566Z,5.80
2023-02-05T18:15:39.505Z,5.28
2023-02-05T18:18:12.446Z,5.13
2023-02-05T18:20:45.437Z,6.28
2023-02-05T18:23:14.135Z,4.88
2023-02-05T18:25:52.470Z,4.57
2023-02-05T18:28:19.289Z,5.75
2023-02-05T18:30:52.538Z,6.45
2023-02-05T18:33:19.292Z,6.20
2023-02-05T18:35:52.480Z,6.25
2023-02-05T18:38:21.242Z,6.50
2023-02-05T18:40:54.470Z,7.20
2023-02-05T18:43:21.316Z,7.55
2023-02-05T18:45:48.187Z,5.40
2023-02-05T18:48:22.474Z,6.57
2023-02-05T18:50:56.080Z,5.35
2023-02-05T18:53:30.517Z,5.93
2023-02-05T18:56:01.972Z,6.30
2023-02-05T18:58:35.562Z,8.40
2023-02-05T19:01:14.310Z,5.53
2023-02-05T19:03:49.590Z,5.70
2023-02-05T19:06:17.242Z,5.90
2023-02-05T19:08:50.535Z,6.43
2023-02-05T19:11:21.043Z,6.28
2023-02-05T19:14:00.577Z,5.38
2023-02-05T19:16:29.470Z,5.28
2023-02-05T19:19:02.606Z,5.80
2023-02-05T19:21:40.575Z,7.70
2023-02-05T19:24:09.782Z,7.07
2023-02-05T19:26:50.553Z,5.90
2023-02-05T19:29:19.497Z,6.32
2023-02-05T19:31:47.066Z,7.90
2023-02-05T19:34:20.529Z,8.60
2023-02-05T19:36:47.570Z,8.15
2023-02-05T19:39:21.556Z,5.45
2023-02-05T19:44:32.201Z,7.38
2023-02-05T19:47:05.652Z,6.65
2023-02-05T19:49:32.544Z,6.65
2023-02-05T19:52:06.784Z,7.65
2023-02-05T19:54:33.640Z,7.72
2023-02-05T19:57:06.646Z,5.88
2023-02-05T19:59:33.525Z,5.70
2023-02-05T20:02:10.627Z,5.95
2023-02-05T20:04:42.321Z,4.50
2023-02-05T20:07:09.635Z,4.60
2023-02-05T20:09:42.632Z,4.75
2023-02-05T20:12:12.915Z,5.15
2023-02-05T20:14:39.945Z,3.50
2023-02-05T20:17:14.663Z,3.75
2023-02-05T20:19:41.398Z,4.47
2023-02-05T20:22:15.662Z,6.10
2023-02-05T20:24:49.499Z,4.63
2023-02-05T20:27:22.710Z,4.55
2023-02-05T20:30:07.883Z,3.78
2023-02-05T20:32:41.668Z,4.18
2023-02-05T20:35:14.680Z,4.43
2023-02-05T20:37:50.729Z,5.22
2023-02-05T20:40:17.771Z,5.63
2023-02-05T20:42:47.144Z,6.05
2023-02-05T20:45:20.664Z,6.32
2023-02-05T20:47:47.707Z,6.22
2023-02-05T20:50:20.660Z,6.72
2023-02-05T20:52:53.682Z,4.93
2023-02-05T20:55:26.693Z,4.03
2023-02-05T20:58:07.639Z,4.03
2023-02-05T21:00:41.757Z,4.22
2023-02-05T21:03:09.404Z,3.38
2023-02-05T21:05:42.677Z,3.05
2023-02-05T21:08:15.711Z,3.45
2023-02-05T21:10:48.753Z,4.65
2023-02-05T21:13:21.804Z,4.47
2023-02-05T21:16:02.798Z,3.13
2023-02-05T21:18:30.988Z,3.30
2023-02-05T21:21:28.797Z,3.00
2023-02-05T21:24:08.699Z,2.60
2023-02-05T21:26:44.789Z,2.72
2023-02-05T21:29:14.219Z,2.85
2023-02-05T21:31:58.774Z,2.53
2023-02-05T21:34:27.996Z,2.83
2023-02-05T21:37:02.715Z,2.35
2023-02-05T21:39:29.667Z,2.95
2023-02-05T21:41:56.413Z,3.38
2023-02-05T21:44:30.803Z,4.15
2023-02-05T21:46:57.758Z,4.40
2023-02-05T21:49:24.572Z,3.50
2023-02-05T21:51:59.843Z,3.38
2023-02-05T21:54:26.782Z,3.53
2023-02-05T21:57:07.754Z,3.40
2023-02-05T21:59:34.696Z,3.65
2023-02-05T22:02:07.889Z,5.03
2023-02-05T22:04:34.718Z,5.70
2023-02-05T22:07:07.804Z,5.38
2023-02-05T22:09:40.764Z,5.80
2023-02-05T22:12:14.820Z,4.05
2023-02-05T22:14:48.793Z,4.63
2023-02-05T22:17:15.696Z,3.97
2023-02-05T22:19:49.812Z,3.53
2023-02-05T22:22:16.598Z,3.85
2023-02-05T22:24:43.343Z,3.75
2023-02-05T22:27:16.856Z,3.67
2023-02-05T22:29:49.840Z,4.50
2023-02-05T22:32:22.814Z,3.33
2023-02-05T22:34:55.836Z,5.28
2023-02-05T22:37:32.860Z,3.97
2023-02-05T22:39:59.679Z,4.72
2023-02-05T22:42:33.837Z,4.90
2023-02-05T22:45:00.677Z,4.60
2023-02-05T22:47:33.881Z,5.20
2023-02-05T22:50:06.735Z,3.75
2023-02-05T22:52:46.878Z,5.35
2023-02-05T22:55:19.902Z,3.63
2023-02-05T22:57:59.856Z,3.78
2023-02-05T23:00:32.839Z,3.25
2023-02-05T23:03:13.857Z,3.08
2023-02-05T23:05:48.915Z,3.00
2023-02-05T23:08:15.805Z,3.42
2023-02-05T23:10:48.880Z,4.13
2023-02-05T23:13:21.951Z,3.67
2023-02-05T23:15:48.812Z,3.72
2023-02-05T23:18:21.894Z,3.10
2023-02-05T23:20:48.702Z,3.40
2023-02-05T23:23:21.934Z,3.30
2023-02-05T23:25:56.945Z,3.10
2023-02-05T23:28:23.758Z,2.90
2023-02-05T23:30:50.642Z,2.67
2023-02-05T23:33:23.917Z,4.80
2023-02-05T23:35:56.963Z,3.83
2023-02-05T23:38:25.088Z,4.40
2023-02-05T23:40:59.947Z,3.97
2023-02-05T23:43:26.915Z,5.45
2023-02-05T23:46:01.071Z,3.97
2023-02-05T23:48:34.911Z,3.85
2023-02-05T23:51:07.963Z,3.67
2023-02-05T23:53:34.808Z,4.45
2023-02-05T23:56:02.582Z,3.88
2023-02-05T23:58:42.002Z,3.28
